Time;durP1;ratioP1;P1;durP2;ratioP2;P2;SDS_P1;SDS_P2;PMS_P1;PMS_P2;Temp;Humidity;BMP_temperature;BMP_pressure;BME280_temperature;BME280_humidity;BME280_pressure;Samples;Min_cycle;Max_cycle;Signal;HPM_P1;HPM_P2
2024/01/18 03:34:05;;;;;;;;;;;;;;;;;;;;;
2024/01/18 03:37:34;;;;;;;21.25;9.10;;;;;;;9.40;100.00;95707.34;5187551;27;20513;-83
2024/01/18 03:40:14;;;;;;;19.77;9.32;;;;;;;9.57;100.00;95758.41;5239871;27;20069;-83
2024/01/18 03:43:34;;;;;;;19.08;8.77;;;;;;;9.33;100.00;95711.31;5242122;27;20061;-83
2024/01/18 03:47:02;;;;;;;18.30;9.15;;;;;;;9.46;100.00;95726.66;5228732;27;20066;-83
2024/01/18 03:50:11;;;;;;;19.52;9.30;;;;;;;9.82;100.00;95757.34;5208872;27;20065;-83
2024/01/18 03:52:56;;;;;;;19.95;9.18;;;;;;;9.52;100.00;95723.63;5229993;27;20034;-84
2024/01/18 03:57:05;;;;;;;20.30;9.52;;;;;;;9.25;100.00;95747.06;5235521;27;20146;-84
2024/01/18 04:00:38;;;;;;;20.08;9.18;;;;;;;9.05;100.00;95697.13;5232227;27;20058;-84
2024/01/18 04:08:00;;;;;;;;;;;;;;;;;;;;;
2024/01/18 04:11:09;;;;;;;17.50;8.20;;;;;;;9.62;100.00;95737.44;5068351;28;20139;-83
2024/01/18 04:18:09;;;;;;;20.92;8.15;;;;;;;9.49;100.00;95698.94;5071138;28;20471;-83
2024/01/18 04:20:52;;;;;;;17.70;7.32;;;;;;;9.42;100.00;95664.31;4894749;27;6000132;-83
2024/01/18 04:24:18;;;;;;;20.08;7.72;;;;;;;9.74;100.00;95723.63;5167918;27;20330;-84
2024/01/18 04:33:52;;;;;;;16.73;7.37;;;;;;;9.61;100.00;95691.22;5249698;27;20133;-83
2024/01/18 04:37:24;;;;;;;;;;;;;;;;;;;;;
2024/01/18 04:43:48;;;;;;;19.05;7.82;;;;;;;9.91;100.00;95717.22;5256408;27;20072;-83
2024/01/18 04:47:05;;;;;;;15.32;7.82;;;;;;;9.79;100.00;95721.53;5240434;27;20108;-83
2024/01/18 04:50:24;;;;;;;16.95;6.87;;;;;;;9.58;100.00;95676.84;5253019;27;20072;-84
2024/01/18 04:53:01;;;;;;;18.40;7.72;;;;;;;9.91;100.00;95722.34;5274757;27;20067;-83
2024/01/18 04:55:43;;;;;;;19.77;8.05;;;;;;;9.65;100.00;95684.91;5269497;27;20049;-83
2024/01/18 04:58:17;;;;;;;18.10;8.10;;;;;;;9.52;100.00;95670.38;5266281;27;20108;-84
2024/01/18 05:01:01;;;;;;;18.10;7.00;;;;;;;9.60;100.00;95702.47;5276336;27;20440;-83
2024/01/18 05:03:37;;;;;;;16.87;6.57;;;;;;;9.68;100.00;95711.25;5302588;27;20057;-83
2024/01/18 05:06:44;;;;;;;16.73;6.45;;;;;;;9.55;100.00;95677.88;5302613;27;20064;-83
2024/01/18 05:14:34;;;;;;;16.58;6.50;;;;;;;9.51;100.00;95694.50;5218298;27;20065;-83
2024/01/18 05:17:38;;;;;;;15.90;6.62;;;;;;;9.68;100.00;95694.97;5142286;27;20117;-83
2024/01/18 05:24:59;;;;;;;;;;;;;;;;;;;;;
2024/01/18 05:27:36;;;;;;;15.45;6.60;;;;;;;9.85;100.00;95715.09;5221333;27;20427;-83
2024/01/18 05:36:45;;;;;;;16.83;7.32;;;;;;;10.23;100.00;95734.53;5283944;27;20080;-83
2024/01/18 05:39:49;;;;;;;16.90;6.35;;;;;;;10.49;100.00;95727.31;5239426;27;20078;-83
2024/01/18 05:42:45;;;;;;;15.60;7.00;;;;;;;10.39;100.00;95743.50;5238473;27;20061;-83
2024/01/18 05:46:08;;;;;;;15.45;7.10;;;;;;;10.04;100.00;95738.50;5228525;27;20134;-84
2024/01/18 05:49:06;;;;;;;16.30;6.90;;;;;;;9.89;100.00;95729.38;5204872;27;20463;-84
2024/01/18 05:55:19;;;;;;;13.88;6.90;;;;;;;9.95;100.00;95728.09;5236641;27;20054;-84
2024/01/18 05:57:50;;;;;;;17.60;7.22;;;;;;;9.87;100.00;95751.84;5236421;27;20285;-84
2024/01/18 06:00:24;;;;;;;18.10;7.35;;;;;;;9.83;100.00;95740.16;5237119;27;20069;-84
2024/01/18 06:02:57;;;;;;;18.37;7.50;;;;;;;9.70;100.00;95703.41;5220378;27;20108;-83
2024/01/18 06:05:29;;;;;;;15.90;7.35;;;;;;;9.46;100.00;95688.88;5235905;27;20054;-83
2024/01/18 06:08:25;;;;;;;17.42;7.10;;;;;;;9.76;100.00;95706.31;5254031;27;20057;-84
2024/01/18 06:11:07;;;;;;;16.52;7.05;;;;;;;9.67;100.00;95714.72;5280642;27;20124;-84
2024/01/18 06:13:43;;;;;;;18.15;6.70;;;;;;;10.05;100.00;95724.69;5262317;27;20065;-83
2024/01/18 06:16:42;;;;;;;16.37;7.75;;;;;;;9.80;100.00;95718.03;5283083;27;20063;-83
2024/01/18 06:19:49;;;;;;;14.45;5.87;;;;;;;9.56;100.00;95676.94;5282274;27;20044;-84
2024/01/18 06:23:01;;;;;;;;;;;;;;;;;;;;;
2024/01/18 06:49:16;;;;;;;12.98;5.30;;;;;;;10.08;100.00;95745.03;5255506;27;20076;-83
2024/01/18 06:51:52;;;;;;;13.73;6.30;;;;;;;9.86;100.00;95745.88;5256306;27;20107;-81
2024/01/18 06:54:21;;;;;;;15.57;5.87;;;;;;;9.75;100.00;95734.75;5220398;27;20072;-81
2024/01/18 06:56:49;;;;;;;12.77;5.40;;;;;;;9.73;100.00;95734.06;5327942;26;20382;-81
2024/01/18 06:59:18;;;;;;;12.60;5.93;;;;;;;9.72;100.00;95735.81;5346197;26;20359;-85
2024/01/18 07:01:46;;;;;;;13.25;5.30;;;;;;;9.75;100.00;95735.56;5346717;26;20048;-82
2024/01/18 07:04:15;;;;;;;13.23;5.28;;;;;;;10.10;100.00;95745.78;5346715;26;20057;-82
2024/01/18 07:06:43;;;;;;;12.85;5.12;;;;;;;10.08;100.00;95746.81;5346218;26;20060;-83
2024/01/18 07:09:11;;;;;;;12.73;5.45;;;;;;;10.03;100.00;95751.50;5325955;26;20419;-82
2024/01/18 07:11:39;;;;;;;14.05;5.82;;;;;;;10.22;100.00;95743.22;5327258;26;20414;-82
2024/01/18 07:14:08;;;;;;;12.02;5.22;;;;;;;10.36;100.00;95746.34;5308513;26;20052;-81
2024/01/18 07:16:38;;;;;;;13.50;5.00;;;;;;;10.49;100.00;95753.94;5327019;26;20076;-82
2024/01/18 07:19:05;;;;;;;10.68;4.80;;;;;;;10.59;100.00;95754.84;5346532;26;20124;-81
2024/01/18 07:21:33;;;;;;;17.33;5.45;;;;;;;10.68;100.00;95753.28;5326550;26;20439;-82
2024/01/18 07:24:02;;;;;;;13.93;4.70;;;;;;;10.29;100.00;95744.34;5346750;26;20169;-81
2024/01/18 07:26:31;;;;;;;12.70;4.78;;;;;;;10.65;100.00;95749.22;5346448;26;20121;-81
2024/01/18 07:28:58;;;;;;;13.62;5.07;;;;;;;10.56;100.00;95749.94;5346039;26;20114;-79
2024/01/18 07:31:26;;;;;;;11.23;4.18;;;;;;;10.65;100.00;95754.38;5326783;26;20472;-81
2024/01/18 07:33:54;;;;;;;15.20;5.18;;;;;;;10.45;100.00;95754.31;5346609;26;20056;-81
2024/01/18 07:36:23;;;;;;;11.25;4.43;;;;;;;10.53;100.00;95752.75;5346035;26;20106;-81
2024/01/18 07:38:53;;;;;;;15.25;4.78;;;;;;;10.28;100.00;95751.28;5346571;26;20170;-81
2024/01/18 07:41:20;;;;;;;13.77;4.82;;;;;;;10.57;100.00;95755.91;5346054;26;20048;-79
2024/01/18 07:43:48;;;;;;;13.98;4.87;;;;;;;10.54;100.00;95753.59;5346902;26;20062;-80
2024/01/18 07:46:16;;;;;;;14.70;6.05;;;;;;;10.54;100.00;95754.41;5346409;26;20067;-79
2024/01/18 07:48:43;;;;;;;12.37;4.97;;;;;;;10.37;100.00;95760.03;5346126;26;20110;-79
2024/01/18 07:51:12;;;;;;;13.50;5.00;;;;;;;10.60;100.00;95759.06;5346508;26;20063;-78
2024/01/18 07:53:41;;;;;;;11.05;3.97;;;;;;;10.55;100.00;95753.44;5346460;26;20053;-78
2024/01/18 07:56:11;;;;;;;12.52;3.95;;;;;;;10.82;100.00;95757.34;5346689;26;20060;-81
2024/01/18 07:58:40;;;;;;;11.45;4.07;;;;;;;10.60;100.00;95764.22;5357069;26;20036;-81
2024/01/18 08:01:07;;;;;;;12.95;4.93;;;;;;;10.95;100.00;95766.59;5354622;26;20762;-80
2024/01/18 08:03:36;;;;;;;11.45;4.40;;;;;;;11.10;100.00;95774.03;5354216;26;20048;-81
2024/01/18 08:06:10;;;;;;;11.82;4.82;;;;;;;11.36;100.00;95769.31;5355606;26;20028;-81
2024/01/18 08:08:40;;;;;;;12.43;4.93;;;;;;;11.52;100.00;95782.59;5357516;26;20062;-81
2024/01/18 08:11:10;;;;;;;13.85;5.10;;;;;;;11.42;100.00;95789.47;5353223;26;20052;-81
2024/01/18 08:13:42;;;;;;;13.00;4.95;;;;;;;11.43;100.00;95783.38;5355535;26;20047;-81
2024/01/18 08:16:16;;;;;;;10.60;4.28;;;;;;;11.32;100.00;95794.56;5338978;26;20048;-81
2024/01/18 08:18:46;;;;;;;12.07;4.78;;;;;;;11.36;100.00;95788.19;5358455;26;20061;-81
2024/01/18 08:21:14;;;;;;;16.42;4.72;;;;;;;11.43;100.00;95793.69;5360202;26;20020;-81
2024/01/18 08:23:42;;;;;;;14.00;4.93;;;;;;;11.46;100.00;95801.19;5361796;26;20024;-82
2024/01/18 08:26:11;;;;;;;12.75;4.62;;;;;;;11.47;100.00;95802.81;5362262;26;20033;-80
2024/01/18 08:28:40;;;;;;;13.02;4.80;;;;;;;11.47;100.00;95797.66;5332894;26;20084;-78
2024/01/18 08:31:08;;;;;;;10.95;4.20;;;;;;;11.61;100.00;95799.13;5346252;26;20049;-79
2024/01/18 08:33:37;;;;;;;10.82;3.67;;;;;;;11.65;100.00;95795.31;5346426;26;20063;-78
2024/01/18 08:36:05;;;;;;;11.20;3.67;;;;;;;11.91;100.00;95795.75;5346218;26;20063;-79
2024/01/18 08:38:34;;;;;;;11.40;3.80;;;;;;;11.86;100.00;95799.56;5345755;26;20502;-79
2024/01/18 08:41:02;;;;;;;12.63;3.85;;;;;;;11.80;100.00;95802.66;5345830;26;20411;-79
2024/01/18 08:43:31;;;;;;;12.00;4.37;;;;;;;11.97;100.00;95798.66;5346240;26;20048;-79
2024/01/18 08:46:00;;;;;;;11.52;3.92;;;;;;;12.04;100.00;95792.03;5346039;26;20056;-78
2024/01/18 08:48:28;;;;;;;13.70;3.87;;;;;;;12.18;100.00;95796.03;5346226;26;20123;-79
2024/01/18 08:50:55;;;;;;;12.90;3.97;;;;;;;11.72;100.00;95796.47;5346305;26;20058;-79
2024/01/18 08:53:22;;;;;;;9.00;3.60;;;;;;;11.97;100.00;95793.50;5346028;26;20044;-79
2024/01/18 08:55:51;;;;;;;11.40;3.80;;;;;;;12.15;100.00;95788.53;5346064;26;20064;-79
2024/01/18 08:58:20;;;;;;;10.40;3.45;;;;;;;12.35;100.00;95784.28;5326437;26;20110;-79
2024/01/18 09:00:48;;;;;;;11.35;3.60;;;;;;;12.11;100.00;95789.75;5346130;26;20048;-78
2024/01/18 09:03:16;;;;;;;8.70;3.20;;;;;;;12.40;100.00;95793.25;5346053;26;20395;-79
2024/01/18 09:05:46;;;;;;;11.15;3.53;;;;;;;12.40;99.87;95795.84;5345903;26;20411;-79
2024/01/18 09:08:13;;;;;;;10.02;3.72;;;;;;;12.31;99.35;95809.56;5346039;26;20110;-80
2024/01/18 09:10:41;;;;;;;14.57;3.47;;;;;;;12.35;99.78;95813.53;5326598;26;20056;-79
2024/01/18 09:13:09;;;;;;;10.52;3.65;;;;;;;12.40;98.79;95813.12;5346143;26;20098;-79
2024/01/18 09:15:38;;;;;;;16.27;3.65;;;;;;;12.27;99.43;95818.53;5346193;26;20140;-79
2024/01/18 09:18:06;;;;;;;9.43;3.72;;;;;;;12.26;100.00;95808.31;5346192;26;20113;-79
2024/01/18 09:20:34;;;;;;;11.95;3.80;;;;;;;12.17;100.00;95809.91;5345631;26;20048;-79
2024/01/18 09:23:02;;;;;;;12.00;4.50;;;;;;;12.25;100.00;95812.69;5346156;26;20055;-79
2024/01/18 09:25:41;;;;;;;11.68;3.75;;;;;;;12.51;100.00;95809.63;5346344;26;20074;-78
2024/01/18 09:28:10;;;;;;;11.88;3.85;;;;;;;12.30;100.00;95807.91;5326538;26;20595;-79
2024/01/18 09:30:38;;;;;;;8.73;3.42;;;;;;;12.51;100.00;95812.22;5326781;26;20067;-78
2024/01/18 09:33:10;;;;;;;13.32;3.67;;;;;;;12.56;100.00;95815.22;5345951;26;20103;-79
2024/01/18 09:35:40;;;;;;;11.70;3.60;;;;;;;12.48;100.00;95812.47;5345701;26;20331;-79
2024/01/18 09:38:10;;;;;;;12.45;3.80;;;;;;;12.54;100.00;95811.94;5346176;26;20070;-79
2024/01/18 09:40:39;;;;;;;13.82;3.67;;;;;;;12.70;99.87;95822.63;5345689;26;20051;-79
2024/01/18 09:43:10;;;;;;;12.02;4.00;;;;;;;13.05;97.22;95819.53;5346091;26;20059;-79
2024/01/18 09:45:40;;;;;;;12.80;4.53;;;;;;;12.98;97.91;95816.69;5308139;26;20412;-79
2024/01/18 09:48:08;;;;;;;12.55;5.20;;;;;;;12.84;98.29;95821.41;5326280;26;20466;-79
2024/01/18 09:50:43;;;;;;;10.93;4.28;;;;;;;12.87;98.15;95816.00;5346032;26;20062;-79
2024/01/18 09:53:13;;;;;;;11.63;4.22;;;;;;;13.66;93.03;95821.06;5326326;26;20053;-79
2024/01/18 09:55:44;;;;;;;9.70;3.85;;;;;;;13.58;91.35;95819.97;5345559;26;20118;-79
2024/01/18 09:58:12;;;;;;;10.32;3.60;;;;;;;13.40;92.83;95815.63;5345833;26;20111;-79
2024/01/18 10:00:50;;;;;;;11.50;3.80;;;;;;;13.52;92.51;95823.13;5326560;26;20052;-79
2024/01/18 10:03:18;;;;;;;9.90;3.62;;;;;;;13.63;92.11;95821.34;5345963;26;20102;-79
2024/01/18 10:05:46;;;;;;;8.35;3.08;;;;;;;13.28;93.15;95818.34;5346316;26;20076;-78
2024/01/18 10:08:15;;;;;;;11.90;4.35;;;;;;;13.18;93.29;95811.50;5327397;26;20061;-79
2024/01/18 10:10:43;;;;;;;10.02;3.83;;;;;;;13.24;93.50;95821.34;5346243;26;20051;-82
2024/01/18 10:13:13;;;;;;;10.30;3.60;;;;;;;13.46;92.19;95826.25;5346579;26;20102;-80
2024/01/18 10:15:42;;;;;;;12.48;3.67;;;;;;;13.66;90.19;95823.66;5346671;26;20057;-79
2024/01/18 10:18:11;;;;;;;10.55;4.30;;;;;;;13.43;91.44;95818.78;5349158;26;20116;-82
2024/01/18 10:20:40;;;;;;;12.15;4.10;;;;;;;13.29;92.54;95817.41;5354404;26;20051;-83
2024/01/18 10:23:10;;;;;;;12.07;4.00;;;;;;;12.92;94.67;95826.75;5361294;26;20060;-80
2024/01/18 10:25:45;;;;;;;13.10;4.25;;;;;;;12.73;96.43;95827.50;5360743;26;20036;-83
2024/01/18 10:28:14;;;;;;;15.93;4.75;;;;;;;12.17;98.48;95822.84;5350212;26;20064;-81
2024/01/18 10:30:41;;;;;;;19.98;6.78;;;;;;;12.67;95.53;95808.19;5336459;26;20058;-84
2024/01/18 10:33:11;;;;;;;12.98;4.82;;;;;;;12.62;96.55;95825.03;5327534;26;20024;-85
2024/01/18 10:35:44;;;;;;;12.77;4.57;;;;;;;11.98;100.00;95826.13;5334463;26;20057;-81
2024/01/18 10:38:11;;;;;;;14.00;4.95;;;;;;;12.39;99.73;95821.84;5355941;26;20029;-83
2024/01/18 10:40:40;;;;;;;12.65;5.57;;;;;;;12.45;100.00;95814.38;5353910;26;20025;-84
2024/01/18 10:43:08;;;;;;;14.52;5.10;;;;;;;11.23;100.00;95810.78;5342999;26;20082;-85
2024/01/18 10:45:35;;;;;;;17.45;6.87;;;;;;;11.18;100.00;95812.94;5358853;26;20090;-83
2024/01/18 10:48:05;;;;;;;16.40;5.30;;;;;;;11.55;100.00;95816.75;5363714;26;20025;-84
2024/01/18 10:50:34;;;;;;;17.15;5.35;;;;;;;11.46;100.00;95814.09;5360367;26;20431;-85
2024/01/18 10:53:02;;;;;;;13.68;6.10;;;;;;;11.31;100.00;95805.84;5309248;26;20058;-83
2024/01/18 10:56:04;;;;;;;13.25;5.70;;;;;;;11.72;100.00;95810.19;5319434;27;20086;-83
2024/01/18 10:58:32;;;;;;;14.93;6.68;;;;;;;12.32;100.00;95800.03;5331510;26;20068;-84
2024/01/18 11:01:00;;;;;;;14.93;5.80;;;;;;;12.32;99.03;95800.03;5338551;26;20028;-85
2024/01/18 11:03:31;;;;;;;18.48;7.97;;;;;;;12.60;97.85;95806.25;5319192;27;20031;-84
2024/01/18 11:06:09;;;;;;;14.35;5.53;;;;;;;12.66;96.69;95806.53;5337063;27;20072;-83
2024/01/18 11:08:38;;;;;;;15.70;5.45;;;;;;;12.93;96.12;95807.66;5341414;26;20031;-83
2024/01/18 11:11:06;;;;;;;15.45;6.53;;;;;;;12.22;98.32;95810.31;5307816;27;20060;-84
2024/01/18 11:13:35;;;;;;;16.27;6.80;;;;;;;11.67;100.00;95798.59;5325921;27;20044;-79
2024/01/18 11:16:04;;;;;;;20.40;8.65;;;;;;;12.30;98.72;95797.56;5325173;27;20396;-78
2024/01/18 11:18:34;;;;;;;15.35;7.30;;;;;;;11.09;100.00;95782.72;5330477;27;20465;-78
2024/01/18 11:21:08;;;;;;;105.65;13.85;;;;;;;11.71;100.00;95797.41;5335414;27;20065;-78
2024/01/18 11:23:39;;;;;;;20.15;10.30;;;;;;;11.94;100.00;95798.12;5336424;27;20771;-79
2024/01/18 11:26:18;;;;;;;24.30;12.30;;;;;;;11.05;100.00;95787.28;5335811;27;20060;-78
2024/01/18 11:28:47;;;;;;;19.52;10.48;;;;;;;11.66;100.00;95786.63;5336162;27;20079;-79
2024/01/18 11:31:16;;;;;;;21.90;10.57;;;;;;;12.25;100.00;95788.59;5338412;27;20464;-79
2024/01/18 11:33:44;;;;;;;24.63;10.13;;;;;;;11.54;100.00;95784.13;5339706;27;20031;-78
2024/01/18 11:36:13;;;;;;;19.83;9.82;;;;;;;11.85;100.00;95786.78;5337666;27;20083;-78
2024/01/18 11:38:45;;;;;;;33.97;8.05;;;;;;;12.19;100.00;95792.50;5338803;27;20095;-79
2024/01/18 11:41:21;;;;;;;77.53;11.38;;;;;;;12.47;97.73;95792.75;5332806;27;20071;-79
2024/01/18 11:43:56;;;;;;;230.45;19.23;;;;;;;12.66;96.05;95783.25;5313318;27;20055;-78
2024/01/18 11:46:47;;;;;;;224.17;16.80;;;;;;;12.70;94.25;95784.63;5333196;27;20040;-79
2024/01/18 11:49:14;;;;;;;219.62;15.23;;;;;;;12.67;94.76;95789.25;5337693;27;20113;-78
2024/01/18 11:51:45;;;;;;;223.77;16.52;;;;;;;11.98;99.57;95771.87;5320146;27;20024;-78
2024/01/18 11:54:15;;;;;;;225.13;16.52;;;;;;;12.20;99.57;95783.78;5338842;27;20049;-78
2024/01/18 11:56:46;;;;;;;250.02;13.18;;;;;;;11.91;99.45;95786.28;5341520;26;20033;-79
2024/01/18 11:59:17;;;;;;;300.80;28.48;;;;;;;11.53;100.00;95779.91;5322686;27;20073;-79
2024/01/18 12:01:44;;;;;;;53.87;10.82;;;;;;;11.92;100.00;95784.50;5341258;26;20024;-79
2024/01/18 12:04:11;;;;;;;172.52;15.95;;;;;;;12.32;97.72;95792.25;5341389;27;20065;-79
2024/01/18 12:06:57;;;;;;;39.53;6.90;;;;;;;12.43;96.64;95787.81;5341810;26;20073;-79
2024/01/18 12:09:27;;;;;;;13.45;5.97;;;;;;;12.83;94.51;95786.13;5341620;27;20080;-78
2024/01/18 12:11:56;;;;;;;61.10;8.38;;;;;;;12.97;93.20;95780.56;5341368;26;20034;-79
2024/01/18 12:14:26;;;;;;;13.68;5.28;;;;;;;12.54;95.91;95789.47;5339396;26;20055;-79
2024/01/18 12:16:54;;;;;;;186.32;13.52;;;;;;;12.70;94.69;95789.78;5317805;27;20056;-79
2024/01/18 12:19:37;;;;;;;52.17;6.05;;;;;;;12.94;92.92;95780.84;5315464;27;20029;-79
2024/01/18 12:22:12;;;;;;;67.70;7.72;;;;;;;13.02;92.09;95784.38;5335050;27;20058;-79
2024/01/18 12:24:40;;;;;;;10.40;3.92;;;;;;;13.27;89.64;95788.22;5334940;27;20024;-79
2024/01/18 12:27:21;;;;;;;19.02;5.00;;;;;;;12.06;96.81;95799.66;5337084;27;20036;-78
2024/01/18 12:29:50;;;;;;;9.98;4.00;;;;;;;12.02;97.89;95795.72;5338971;27;20050;-78
2024/01/18 12:32:19;;;;;;;11.02;3.53;;;;;;;12.05;98.00;95790.28;5339658;26;20035;-78
2024/01/18 12:34:47;;;;;;;17.73;3.50;;;;;;;11.36;100.00;95785.63;5317373;27;20057;-78
2024/01/18 12:37:17;;;;;;;9.20;3.00;;;;;;;10.92;100.00;95787.44;5332156;26;20033;-79
2024/01/18 12:39:45;;;;;;;20.42;3.20;;;;;;;11.26;100.00;95784.72;5318195;27;20033;-80
2024/01/18 12:42:12;;;;;;;7.95;2.60;;;;;;;10.82;100.00;95785.72;5339882;26;20025;-80
2024/01/18 12:47:25;;;;;;;16.58;2.72;;;;;;;11.58;100.00;95775.16;5300422;27;20123;-78
2024/01/18 12:49:54;;;;;;;5.20;2.15;;;;;;;11.94;99.50;95778.25;5318638;27;20041;-79
2024/01/18 12:52:30;;;;;;;10.45;1.90;;;;;;;12.15;98.34;95780.78;5317898;26;20035;-78
2024/01/18 12:54:59;;;;;;;8.57;2.12;;;;;;;12.10;97.38;95775.19;5345626;26;20028;-79
2024/01/18 12:57:27;;;;;;;4.60;1.73;;;;;;;12.11;97.41;95771.66;5345375;26;20029;-78
2024/01/18 12:59:54;;;;;;;12.95;3.45;;;;;;;12.40;95.85;95775.16;5363957;26;20025;-78
2024/01/18 13:02:24;;;;;;;15.15;5.75;;;;;;;12.19;97.37;95773.59;5364203;26;20024;-79
2024/01/18 13:04:52;;;;;;;28.27;11.05;;;;;;;12.00;99.17;95769.97;5363832;26;20035;-78
2024/01/18 13:07:28;;;;;;;54.67;30.00;;;;;;;11.67;100.00;95758.09;5363013;26;20028;-79
2024/01/18 13:09:57;;;;;;;90.25;43.70;;;;;;;11.69;100.00;95747.63;5345439;26;20074;-79
2024/01/18 13:12:25;;;;;;;73.85;38.03;;;;;;;12.00;98.14;95759.62;5344120;26;20035;-78
2024/01/18 13:14:53;;;;;;;52.15;30.60;;;;;;;11.39;100.00;95761.34;5362552;26;20024;-78
2024/01/18 13:17:21;;;;;;;50.25;26.95;;;;;;;11.53;100.00;95766.97;5359877;26;20036;-78
2024/01/18 13:19:55;;;;;;;43.50;23.58;;;;;;;11.85;100.00;95766.91;5355549;26;20057;-78
2024/01/18 13:22:22;;;;;;;37.58;19.77;;;;;;;11.75;100.00;95763.44;5355496;26;20111;-80
2024/01/18 13:24:51;;;;;;;126.53;48.90;;;;;;;11.65;100.00;95778.06;5353045;26;20021;-77
2024/01/18 13:27:38;;;;;;;122.40;20.05;;;;;;;11.24;100.00;95779.69;5360588;26;20029;-78
2024/01/18 13:30:07;;;;;;;101.38;13.68;;;;;;;10.17;100.00;95781.34;5354048;26;20033;-78
2024/01/18 13:32:35;;;;;;;79.82;11.93;;;;;;;9.89;100.00;95754.31;5362991;26;20488;-77
2024/01/18 13:35:02;;;;;;;65.22;12.13;;;;;;;10.52;100.00;95760.59;5361168;26;20045;-78
2024/01/18 13:37:32;;;;;;;268.85;18.37;;;;;;;10.79;100.00;95804.84;5287345;26;20041;-77
2024/01/18 13:39:59;;;;;;;226.25;16.77;;;;;;;10.43;100.00;95777.63;5320830;26;20032;-78
2024/01/18 13:42:27;;;;;;;135.98;11.57;;;;;;;10.38;100.00;95801.16;5352190;26;20063;-78
2024/01/18 13:45:57;;;;;;;194.37;15.57;;;;;;;9.80;100.00;95779.03;5363493;26;20024;-79
2024/01/18 13:48:25;;;;;;;171.40;11.00;;;;;;;9.97;100.00;95812.03;5362463;26;20033;-79
2024/01/18 13:50:53;;;;;;;192.32;13.05;;;;;;;10.39;100.00;95813.12;5358015;26;20037;-78
2024/01/18 13:53:21;;;;;;;159.20;10.82;;;;;;;10.91;100.00;95829.66;5359514;26;20032;-77
2024/01/18 13:55:49;;;;;;;107.47;6.37;;;;;;;10.81;100.00;95831.34;5356695;26;20025;-77
2024/01/18 13:58:18;;;;;;;158.77;8.07;;;;;;;10.89;100.00;95838.47;5293492;26;21057;-78
2024/01/18 14:00:46;;;;;;;322.25;15.68;;;;;;;11.19;100.00;95843.78;5299962;26;20036;-79
2024/01/18 14:03:16;;;;;;;309.45;16.65;;;;;;;11.38;100.00;95839.69;5344711;26;20024;-78
2024/01/18 14:05:44;;;;;;;209.45;16.90;;;;;;;11.78;99.58;95835.50;5357915;26;20044;-78
2024/01/18 14:08:13;;;;;;;45.05;5.37;;;;;;;11.58;99.37;95821.66;5357349;26;20480;-78
2024/01/18 14:13:13;;;;;;;18.73;4.30;;;;;;;12.29;96.50;95844.25;5296872;27;20064;-78
2024/01/18 14:15:41;;;;;;;15.45;3.10;;;;;;;12.67;92.12;95831.47;5300050;26;20104;-78
2024/01/18 14:18:11;;;;;;;157.68;11.00;;;;;;;12.40;94.69;95863.06;5355825;26;20065;-79
2024/01/18 14:20:38;;;;;;;176.02;10.20;;;;;;;12.54;94.38;95869.66;5356582;26;20117;-78
2024/01/18 14:28:44;;;;;;;213.43;22.30;;;;;;;12.51;91.60;95866.53;5337619;26;20075;-77
2024/01/18 14:37:03;;;;;;;33.88;6.80;;;;;;;12.53;90.23;95877.56;5344467;26;20032;-76
2024/01/18 14:39:33;;;;;;;374.67;22.15;;;;;;;12.02;91.56;95831.91;5351348;26;20084;-77
2024/01/18 14:42:00;;;;;;;327.00;26.77;;;;;;;11.58;94.18;95831.97;5356239;26;20099;-77
2024/01/18 14:44:31;;;;;;;139.20;14.70;;;;;;;11.56;94.71;95867.44;5358075;26;20052;-76
2024/01/18 14:47:11;;;;;;;134.95;11.43;;;;;;;12.10;91.83;95874.22;5360697;26;20028;-77
2024/01/18 14:49:38;;;;;;;188.25;12.10;;;;;;;11.87;92.76;95872.72;5337082;26;20075;-78
2024/01/18 14:52:10;;;;;;;138.43;12.05;;;;;;;11.79;92.85;95867.31;5333902;26;20041;-78
2024/01/18 14:54:38;;;;;;;100.57;13.95;;;;;;;11.99;92.29;95861.38;5347977;26;20113;-79
2024/01/18 14:57:06;;;;;;;108.18;20.50;;;;;;;12.07;92.13;95856.38;5345884;26;20059;-78
2024/01/18 14:59:39;;;;;;;174.52;39.97;;;;;;;12.11;91.92;95862.13;5344578;26;20064;-77
2024/01/18 15:02:07;;;;;;;335.55;49.95;;;;;;;11.74;92.25;95828.97;5358187;26;20051;-76
2024/01/18 15:04:35;;;;;;;244.75;34.45;;;;;;;11.32;93.70;95829.88;5339577;26;20061;-78
2024/01/18 15:07:03;;;;;;;334.33;30.67;;;;;;;11.79;90.97;95885.41;5355524;26;20062;-77
2024/01/18 15:09:31;;;;;;;427.90;33.97;;;;;;;11.70;90.59;95886.19;5356685;26;20043;-77
2024/01/18 15:12:01;;;;;;;316.55;27.30;;;;;;;11.48;90.06;95882.75;5339586;26;20029;-78
2024/01/18 15:14:30;;;;;;;137.55;10.25;;;;;;;10.99;94.23;95885.84;5352349;26;20035;-77
2024/01/18 15:16:57;;;;;;;174.55;11.45;;;;;;;10.57;95.40;95849.56;5328462;26;20029;-77
2024/01/18 15:19:26;;;;;;;314.67;19.10;;;;;;;10.75;97.00;95898.06;5349402;26;20423;-76
2024/01/18 15:21:54;;;;;;;270.63;18.92;;;;;;;11.11;95.93;95909.84;5360081;26;20025;-77
2024/01/18 15:24:22;;;;;;;243.68;21.55;;;;;;;10.95;93.75;95856.88;5358402;26;20024;-77
2024/01/18 15:26:50;;;;;;;180.57;14.55;;;;;;;11.23;92.32;95911.47;5359430;26;20058;-78
2024/01/18 15:29:20;;;;;;;127.15;7.15;;;;;;;11.34;89.52;95908.84;5362721;26;20029;-79
2024/01/18 15:31:48;;;;;;;115.93;7.55;;;;;;;11.09;89.42;95912.56;5361838;26;20067;-77
2024/01/18 15:34:17;;;;;;;109.93;5.87;;;;;;;10.84;89.89;95908.47;5361291;26;20031;-77
2024/01/18 15:39:30;;;;;;;63.92;4.57;;;;;;;10.72;91.20;95907.66;5312157;26;20170;31
2024/01/18 15:41:58;;;;;;;65.68;5.07;;;;;;;10.79;89.09;95910.59;5294826;27;20070;-76
2024/01/18 15:44:29;;;;;;;33.53;2.47;;;;;;;10.84;86.32;95913.63;5291263;27;20072;-76
2024/01/18 15:47:13;;;;;;;17.67;1.75;;;;;;;10.61;86.87;95919.75;5289573;27;20032;-76
2024/01/18 15:49:43;;;;;;;43.03;3.37;;;;;;;10.01;89.24;95920.84;5273105;27;20037;-76
2024/01/18 15:52:11;;;;;;;40.67;4.03;;;;;;;9.33;95.89;95952.41;5248719;27;20030;-76
2024/01/18 15:57:23;;;;;;;32.15;6.65;;;;;;;8.92;100.00;95962.06;5336790;26;20033;-78
2024/01/18 15:59:54;;;;;;;53.17;6.53;;;;;;;8.79;100.00;95975.91;5340005;26;20036;-78
2024/01/18 16:02:21;;;;;;;32.97;6.00;;;;;;;8.57;100.00;95971.38;5359764;26;20070;-78
2024/01/18 16:04:53;;;;;;;31.12;6.07;;;;;;;8.69;100.00;95975.69;5346406;26;20076;-79
2024/01/18 16:07:25;;;;;;;36.20;6.57;;;;;;;8.10;100.00;95941.97;5346872;26;20059;-78
2024/01/18 16:09:53;;;;;;;38.17;6.93;;;;;;;7.93;100.00;95978.19;5359924;26;20070;-78
2024/01/18 16:12:21;;;;;;;35.28;7.22;;;;;;;8.04;100.00;95960.34;5347190;26;20076;-78
2024/01/18 16:14:49;;;;;;;51.88;6.87;;;;;;;8.20;100.00;95970.44;5351350;26;20102;-79
2024/01/18 16:17:17;;;;;;;53.83;7.90;;;;;;;8.69;100.00;95980.84;5352360;26;20040;-78
2024/01/18 16:19:46;;;;;;;76.18;8.05;;;;;;;8.75;100.00;95987.31;5350208;26;20107;-77
2024/01/18 16:22:14;;;;;;;78.35;9.05;;;;;;;8.58;100.00;95983.31;5353077;26;20039;-79
2024/01/18 16:24:42;;;;;;;49.88;8.32;;;;;;;8.77;100.00;95985.47;5332265;26;20057;-79
2024/01/18 16:27:10;;;;;;;86.22;9.73;;;;;;;9.09;100.00;95993.53;5357258;26;20050;-78
2024/01/18 16:29:40;;;;;;;70.35;9.40;;;;;;;8.76;100.00;95989.78;5349407;26;20043;-77
2024/01/18 16:32:26;;;;;;;113.37;11.63;;;;;;;9.11;100.00;95992.50;5354919;26;20403;-77
2024/01/18 16:34:54;;;;;;;74.45;8.95;;;;;;;9.26;100.00;95999.16;5349842;26;20080;-79
2024/01/18 16:37:24;;;;;;;81.87;9.27;;;;;;;9.18;100.00;95996.31;5352260;26;20054;-78
2024/01/18 16:39:52;;;;;;;67.57;9.35;;;;;;;9.21;100.00;96002.97;5351858;26;20406;-79
2024/01/18 16:42:20;;;;;;;70.90;9.52;;;;;;;9.41;100.00;95999.84;5359473;26;20032;-78
2024/01/18 16:44:50;;;;;;;73.93;10.02;;;;;;;9.53;100.00;95998.97;5353398;26;20032;-78
2024/01/18 16:47:18;;;;;;;65.25;9.93;;;;;;;9.70;100.00;96005.50;5352860;26;20658;-80
2024/01/18 16:49:45;;;;;;;59.90;10.95;;;;;;;9.23;100.00;95963.34;5357698;26;20064;-80
2024/01/18 16:52:15;;;;;;;68.25;10.00;;;;;;;9.55;100.00;96012.53;5326825;26;20073;-79
2024/01/18 16:54:43;;;;;;;90.90;10.55;;;;;;;9.46;100.00;96013.22;5363963;26;20021;-78